• Join FlightAware (Why Join?)
  • Login
  • US Flag 
04:54AM EST


 

Airport Tracker/Info


-or-


 

Live Flight TrackerFlight Track Log ✈ EJA929 ✈ 16-Aug-2013 ✈ KSNA - KMIA

Flight Track Log - Related Links

Times and Time Zones

All times are in EDT time to prevent confusion due to time zone crossing. See the EJA929 flight status page for this flight to view local times or setup timezone preferences in your user account.

Time Position Orientation Groundspeed Altitude Reporting Facility
EDT Latitude Longitude Course Direction KTS MPH feet Rate Location/Type
01:08PM 33.6333 -117.8833 192° South 196 226 2,100  Level Southern California TRACON
01:09PM 33.5667 -117.9000 192° South 236 272 4,200 1,920 Climbing Southern California TRACON
01:10PM 33.5400 -117.8789 147° Southeast 242 278 5,100 2,040 Climbing Los Angeles Center
01:11PM 33.5106 -117.8053 116° Southeast 270 311 7,500 2,160 Climbing Los Angeles Center
01:12PM 33.5322 -117.7106 75° East 289 333 9,600 1,560 Climbing Los Angeles Center
01:13PM 33.5608 -117.5867 74° East 320 368 10,800 1,140 Climbing Los Angeles Center
01:14PM 33.5864 -117.4703 75° East 355 409 12,000 1,200 Climbing Los Angeles Center
01:15PM 33.5903 -117.3461 88° East 370 426 13,300 1,140 Climbing Los Angeles Center
01:16PM 33.5942 -117.2208 88° East 376 433 14,400 960 Climbing Los Angeles Center
01:17PM 33.5992 -117.1169 87° East 383 441 15,300 1,020 Climbing Los Angeles Center
01:18PM 33.6042 -116.9586 88° East 394 453 16,600 1,620 Climbing Los Angeles Center
01:19PM 33.6083 -116.8278 88° East 396 456 18,700 1,740 Climbing Los Angeles Center
01:20PM 33.6122 -116.6681 88° East 389 448 20,300 1,440 Climbing Los Angeles Center
01:21PM 33.6161 -116.5367 88° East 394 453 21,800 1,500 Climbing Los Angeles Center
01:22PM 33.6208 -116.4039 88° East 397 457 23,400 1,440 Climbing Los Angeles Center
01:23PM 33.6256 -116.2706 88° East 399 459 24,800 720 Climbing Los Angeles Center
01:24PM 33.6269 -116.1275 89° East 429 494 25,000 60 Climbing Los Angeles Center
01:25PM 33.6244 -115.9761 91° East 448 516 25,000 300 Level Los Angeles Center
01:26PM 33.6211 -115.7900 91° East 463 533 25,700 840 Climbing Los Angeles Center
01:27PM 33.6172 -115.6356 92° East 462 532 26,800 600 Climbing Los Angeles Center
01:28PM 33.6128 -115.4797 92° East 468 539 27,000 60 Climbing Los Angeles Center
01:29PM 33.6089 -115.3275 92° East 459 528 27,000 240 Level Los Angeles Center
01:30PM 33.6064 -115.1786 91° East 450 518 27,500 720 Climbing Los Angeles Center
01:31PM 33.6019 -115.0347 92° East 436 502 28,600 1,200 Climbing Los Angeles Center
01:33PM 33.5975 -114.8297 91° East 441 507 30,300 1,200 Climbing Los Angeles Center
01:34PM 33.5889 -114.6808 94° East 447 514 31,400 840 Climbing Los Angeles Center
01:35PM 33.5747 -114.5289 96° East 461 531 32,100 1,260 Climbing Los Angeles Center
01:36PM 33.5611 -114.3506 95° East 462 532 34,200 1,800 Climbing Albuquerque Center
01:37PM 33.5469 -114.2022 96° East 452 520 36,100 1,560 Climbing Albuquerque Center
01:38PM 33.5331 -114.0547 96° East 448 516 37,500 1,320 Climbing Albuquerque Center
01:39PM 33.5200 -113.9072 96° East 446 513 38,900 1,500 Climbing Albuquerque Center
01:40PM 33.5019 -113.7303 97° East 446 513 40,700 960 Climbing Albuquerque Center
01:41PM 33.4867 -113.5814 97° East 448 516 41,000 240 Climbing Albuquerque Center
01:42PM 33.4725 -113.4239 96° East 469 540 41,200 540 Climbing Albuquerque Center
01:43PM 33.4333 -113.2692 107° East 484 557 42,200 840 Climbing Albuquerque Center
01:44PM 33.3700 -113.1089 115° Southeast 479 551 43,000 360 Climbing Albuquerque Center
01:45PM 33.3183 -112.9792 115° Southeast 482 555 43,000  Level Albuquerque Center
01:46PM 33.2606 -112.8325 115° Southeast 485 558 43,000  Level Albuquerque Center
01:47PM 33.1903 -112.6572 116° Southeast 486 559 43,000  Level Albuquerque Center
01:48PM 33.1269 -112.5042 116° Southeast 482 555 43,000  Level Albuquerque Center
01:49PM 33.0953 -112.3592 105° East 489 563 43,000  Level Albuquerque Center
01:50PM 33.0642 -112.1906 102° East 491 565 43,000  Level Albuquerque Center
01:51PM 33.0356 -112.0306 102° East 495 570 43,000  Level Albuquerque Center
01:52PM 33.0058 -111.8711 102° East 496 571 43,000  Level Albuquerque Center
01:53PM 32.9758 -111.7114 103° East 497 572 43,000  Level Albuquerque Center
01:54PM 32.9458 -111.5517 103° East 498 573 43,000 240 Level Albuquerque Center
01:55PM 32.9089 -111.3592 103° East 498 573 43,500 420 Climbing Albuquerque Center
01:57PM 32.8772 -111.1997 103° East 499 574 43,900 420 Climbing Albuquerque Center
01:58PM 32.8469 -111.0394 103° East 498 573 44,400 480 Climbing Albuquerque Center
01:59PM 32.8156 -110.8806 103° East 497 572 44,900 240 Climbing Albuquerque Center
02:00PM 32.7842 -110.7225 103° East 494 568 45,000  Climbing Albuquerque Center
02:01PM 32.7478 -110.5408 103° East 493 567 45,000  Level Albuquerque Center
02:02PM 32.7167 -110.3833 103° East 492 566 45,000  Level Albuquerque Center
02:03PM 32.6844 -110.2275 104° East 489 563 45,000  Level Albuquerque Center
02:04PM 32.6536 -110.0728 103° East 486 559 45,000  Level Albuquerque Center
02:05PM 32.6211 -109.9178 104° East 486 559 45,000  Level Albuquerque Center
02:06PM 32.5831 -109.7306 104° East 488 562 45,000  Level Albuquerque Center
02:07PM 32.5469 -109.5728 105° East 497 572 45,000  Level Albuquerque Center
02:08PM 32.5150 -109.4164 104° East 496 571 45,000  Level Albuquerque Center
02:09PM 32.4828 -109.2600 104° East 494 568 45,000  Level Albuquerque Center
02:10PM 32.4489 -109.1047 104° East 492 566 45,000  Level Albuquerque Center
02:11PM 32.4094 -108.9164 104° East 494 568 45,000  Level Albuquerque Center
02:12PM 32.3761 -108.7586 104° East 497 572 45,000  Level Albuquerque Center
02:13PM 32.3422 -108.6028 104° East 495 570 45,000  Level Albuquerque Center
02:14PM 32.3072 -108.4425 104° East 495 570 45,000  Level Albuquerque Center
02:15PM 32.2728 -108.2850 104° East 496 571 45,000  Level Albuquerque Center
02:16PM 32.2381 -108.1281 105° East 496 571 45,000  Level Albuquerque Center
02:17PM 32.1964 -107.9397 105° East 497 572 45,000  Level Albuquerque Center
02:18PM 32.1614 -107.7831 105° East 497 572 45,000  Level Albuquerque Center
02:19PM 32.1275 -107.6264 104° East 496 571 45,000  Level Albuquerque Center
02:20PM 32.0925 -107.4719 105° East 495 570 45,000  Level Albuquerque Center
02:21PM 32.0567 -107.3181 105° East 493 567 45,000  Level Albuquerque Center
02:22PM 32.0219 -107.1633 105° East 493 567 45,000  Level Albuquerque Center
02:23PM 31.9808 -106.9794 105° East 491 565 45,000  Level Albuquerque Center
02:24PM 31.9442 -106.8244 106° East 493 567 45,000  Level Albuquerque Center
02:25PM 31.9075 -106.6694 106° East 495 570 45,000  Level Albuquerque Center
02:26PM 31.8672 -106.5022 106° East 501 577 45,000  Level Albuquerque Center
02:27PM 31.8328 -106.3428 104° East 505 581 45,000  Level Albuquerque Center
02:28PM 31.8042 -106.1847 102° East 497 572 45,000  Level Albuquerque Center
02:30PM 31.7858 -106.0278 98° East 486 559 45,000  Level Albuquerque Center
02:31PM 31.7669 -105.8703 98° East 485 558 45,000  Level Albuquerque Center
02:32PM 31.7478 -105.7131 98° East 486 559 45,000  Level Albuquerque Center
02:33PM 31.7247 -105.5244 98° East 488 562 45,000  Level Albuquerque Center
02:34PM 31.7058 -105.3658 98° East 489 563 45,000  Level Albuquerque Center
02:35PM 31.6858 -105.2111 99° East 482 555 45,000  Level Albuquerque Center
02:36PM 31.6667 -105.0519 98° East 484 557 45,000  Level Albuquerque Center
02:37PM 31.6472 -104.8939 98° East 487 560 45,000  Level Albuquerque Center
02:38PM 31.6264 -104.7369 99° East 486 559 45,000  Level Albuquerque Center
02:39PM 31.6064 -104.5783 98° East 487 560 45,000  Level Albuquerque Center
02:40PM 31.5853 -104.4225 99° East 486 559 45,000  Level Albuquerque Center
02:41PM 31.5622 -104.2361 98° East 483 556 45,000  Level Albuquerque Center
02:42PM 31.5417 -104.0786 99° East 487 560 45,000  Level Albuquerque Center
02:43PM 31.5200 -103.9214 99° East 488 562 45,000  Level Albuquerque Center
02:44PM 31.4989 -103.7636 99° East 489 563 45,000  Level Albuquerque Center
02:45PM 31.4772 -103.6106 99° East 489 563 45,000  Level Albuquerque Center
02:46PM 31.4556 -103.4536 99° East 489 563 45,000  Level Albuquerque Center
02:47PM 31.4306 -103.2656 99° East 489 563 45,000  Level Albuquerque Center
02:48PM 31.4114 -103.1069 98° East 492 566 45,000  Level Albuquerque Center
02:49PM 31.3911 -102.9508 99° East 488 562 45,000  Level Albuquerque Center
02:50PM 31.3706 -102.7933 99° East 490 564 45,000  Level Albuquerque Center
02:51PM 31.3506 -102.6356 98° East 490 564 45,000  Level Albuquerque Center
02:52PM 31.3300 -102.4750 98° East 528 608 45,000  Level Albuquerque Center
02:53PM 31.3053 -102.2878 99° East 501 577 45,000  Level Albuquerque Center
02:54PM 31.2847 -102.1300 99° East 495 570 45,000  Level Albuquerque Center
02:55PM 31.2756 -102.0414 97° East 499 574 45,000  Level Houston Center
02:56PM 31.2536 -101.8850 99° East 492 566 45,000  Level Houston Center
02:57PM 31.2314 -101.7267 99° East 493 567 45,000  Level Houston Center
02:58PM 31.2089 -101.5672 99° East 496 571 45,000  Level Houston Center
02:59PM 31.1822 -101.3750 99° East 500 575 45,000  Level Houston Center
03:00PM 31.1594 -101.2089 99° East 501 577 45,000  Level Houston Center
03:01PM 31.1364 -101.0478 99° East 503 579 45,000  Level Houston Center
03:02PM 31.1142 -100.8856 99° East 505 581 45,000  Level Houston Center
03:03PM 31.0911 -100.7233 99° East 506 582 45,000  Level Houston Center
03:04PM 31.0669 -100.5611 100° East 506 582 45,000  Level Houston Center
03:05PM 31.0444 -100.3997 99° East 504 580 45,000  Level Houston Center
03:06PM 31.0197 -100.2364 100° East 509 586 45,000  Level Houston Center
03:07PM 30.9911 -100.0375 99° East 515 593 45,000  Level Houston Center
03:08PM 30.9661 -99.8719 100° East 517 595 45,000 -60 Level Houston Center
03:09PM 30.9403 -99.7056 100° East 519 597 44,900  Descending Houston Center
03:10PM 30.9167 -99.5406 99° East 515 593 45,000  Climbing Houston Center
03:11PM 30.8922 -99.3775 100° East 512 589 45,000  Level Houston Center
03:12PM 30.8683 -99.2156 100° East 509 586 45,000  Level Houston Center
03:13PM 30.8406 -99.0317 100° East 505 581 45,000  Level Houston Center
03:14PM 30.8164 -98.8689 100° East 507 583 45,000  Level Houston Center
03:15PM 30.7903 -98.7036 100° East 513 590 45,000  Level Houston Center
03:16PM 30.7642 -98.5372 100° East 517 595 45,000  Level Houston Center
03:18PM 30.7394 -98.3708 100° East 519 597 45,000  Level Houston Center
03:19PM 30.7094 -98.1778 100° East 517 595 45,000  Level Houston Center
03:20PM 30.6828 -98.0144 101° East 512 589 45,000  Level Houston Center
03:21PM 30.6569 -97.8522 100° East 510 587 45,000  Level Houston Center
03:22PM 30.6308 -97.6892 101° East 512 589 45,000  Level Houston Center
03:23PM 30.6047 -97.5272 101° East 509 586 45,000  Level Houston Center
03:24PM 30.5739 -97.3378 101° East 512 589 45,000  Level Houston Center
03:25PM 30.5472 -97.1747 101° East 513 590 45,000  Level Houston Center
03:26PM 30.5200 -97.0122 101° East 513 590 45,000  Level Houston Center
03:27PM 30.4936 -96.8483 101° East 516 594 45,000  Level Houston Center
03:28PM 30.4661 -96.6867 101° East 512 589 45,000  Level Houston Center
03:29PM 30.4403 -96.5247 100° East 509 586 45,000  Level Houston Center
03:30PM 30.4072 -96.3369 101° East 507 583 45,000  Level Houston Center
03:31PM 30.3792 -96.1758 101° East 507 583 45,000  Level Houston Center
03:32PM 30.3533 -96.0225 101° East 508 585 45,000  Level Houston Center
03:33PM 30.3211 -95.8447 102° East 503 579 45,000  Level Houston Center
03:34PM 30.2931 -95.6831 101° East 511 588 45,000  Level Houston Center
03:35PM 30.2639 -95.5222 102° East 510 587 45,000  Level Houston Center
03:36PM 30.2353 -95.3606 102° East 511 588 45,000  Level Houston Center
03:37PM 30.2067 -95.1981 101° East 513 590 45,000  Level Houston Center
03:38PM 30.1772 -95.0347 102° East 516 594 45,000  Level Houston Center
03:39PM 30.1478 -94.8706 102° East 520 598 45,000  Level Houston Center
03:40PM 30.1114 -94.6736 102° East 521 600 45,000  Level Houston Center
03:41PM 30.0803 -94.5103 102° East 521 600 45,000  Level Houston Center
03:42PM 30.0497 -94.3514 102° East 515 593 45,000  Level Houston Center
03:43PM 30.0194 -94.1917 102° East 514 592 45,000  Level Houston Center
03:44PM 29.9889 -94.0308 102° East 516 594 45,000  Level Houston Center
03:45PM 29.9511 -93.8389 103° East 515 593 45,000  Level Houston Center
03:47PM 29.9200 -93.6808 103° East 512 589 45,000  Level Houston Center
03:48PM 29.8883 -93.5222 103° East 511 588 45,000 -60 Level Houston Center
03:49PM 29.8575 -93.3631 103° East 514 592 44,900  Descending Houston Center
03:50PM 29.8267 -93.2053 103° East 510 587 45,000  Climbing Houston Center
03:51PM 29.7903 -93.0158 102° East 508 585 45,000  Level Houston Center
03:52PM 29.7589 -92.8581 103° East 508 585 45,000  Level Houston Center
03:53PM 29.7269 -92.6997 103° East 509 586 45,000  Level Houston Center
03:54PM 29.6953 -92.5428 103° East 508 585 45,000  Level Houston Center
03:55PM 29.6633 -92.3850 103° East 507 583 45,000  Level Houston Center
03:56PM 29.6242 -92.1969 103° East 506 582 45,000  Level Houston Center
03:57PM 29.5922 -92.0414 103° East 503 579 45,000  Level Houston Center
03:58PM 29.5606 -91.8844 103° East 505 581 45,000  Level Houston Center
03:59PM 29.5281 -91.7278 103° East 505 581 45,000  Level Houston Center
04:00PM 29.4942 -91.5719 104° East 505 581 45,000  Level Houston Center
04:01PM 29.4550 -91.3856 104° East 503 579 45,000  Level Houston Center
04:02PM 29.4214 -91.2306 104° East 504 580 45,000  Level Houston Center
04:03PM 29.3883 -91.0761 104° East 502 578 45,000  Level Houston Center
04:04PM 29.3547 -90.9194 104° East 506 582 45,000  Level Houston Center
04:05PM 29.3206 -90.7661 104° East 502 578 45,000  Level Houston Center
04:07PM 29.2690 -90.5715 107° East  Level FlightAware Approximate
04:07PM 29.2464 -90.4256 107° East 505 581 45,000  Level Houston Center
04:08PM 29.2131 -90.2747 104° East 497 572 44,900 -60 Descending Houston Center
04:09PM 29.1789 -90.1250 105° East 492 566 44,900  Level Houston Center
04:10PM 29.1353 -89.9783 109° East 488 562 45,000  Climbing Houston Center
04:11PM 29.0967 -89.8264 106° East 495 570 44,900 -60 Descending Houston Center
04:12PM 29.0497 -89.6406 106° East 506 582 44,900  Level Houston Center
04:13PM 29.0122 -89.4828 105° East 514 592 45,000  Climbing Houston Center
04:14PM 28.9725 -89.3300 107° East 509 586 45,000  Level Houston Center
04:16PM 28.9333 -89.1750 106° East 509 586 45,000  Level Houston Center
04:17PM 28.8944 -89.0250 106° East 499 574 45,000  Level Houston Center
04:18PM 28.8483 -88.8469 106° East 492 566 45,000  Level Houston Center
04:19PM 28.8100 -88.6986 106° East 488 562 45,000  Level Houston Center
04:20PM 28.7711 -88.5481 106° East 494 568 45,000 -60 Level Houston Center
04:21PM 28.7333 -88.3986 106° East 494 568 44,900  Descending Houston Center
04:22PM 28.6933 -88.2492 107° East 494 568 45,000  Climbing Houston Center
04:23PM 28.6561 -88.0664 103° East 495 570 44,900  Descending Houston Center
04:24PM 28.6264 -87.9372 105° East 487 560 45,000  Climbing Houston Center
04:25PM 28.5950 -87.7917 104° East 479 551 45,000 -60 Level Houston Center
04:26PM 28.5553 -87.6147 104° East 480 552 44,900  Descending Houston Center
04:27PM 28.5214 -87.4636 104° East 490 564 45,000  Climbing Houston Center
04:28PM 28.4867 -87.3144 105° East 491 565 45,000  Level Houston Center
04:29PM 28.4528 -87.1661 105° East 488 562 45,000 -60 Level Houston Center
04:30PM 28.4119 -87.0625 114° Southeast 483 556 44,900  Descending Jacksonville Center
04:31PM 28.3561 -86.9164 113° Southeast 483 556 45,000  Climbing Jacksonville Center
04:32PM 28.2997 -86.7844 116° Southeast 478 550 45,000  Level Jacksonville Center
04:33PM 28.2453 -86.6458 114° Southeast 483 556 45,000  Level Jacksonville Center
04:34PM 28.1889 -86.5094 115° Southeast 471 542 45,000  Level Jacksonville Center
04:35PM 28.1342 -86.3708 114° Southeast 471 542 45,000  Level Jacksonville Center
04:36PM 28.0794 -86.2375 115° Southeast 471 542 45,000  Level Jacksonville Center
04:37PM 28.0264 -86.1111 115° Southeast 462 532 45,000 -60 Level Jacksonville Center
04:38PM 27.9731 -85.9800 115° Southeast 462 532 44,900  Descending Jacksonville Center
04:39PM 27.9200 -85.8469 114° Southeast 455 524 45,000  Climbing Jacksonville Center
04:40PM 27.8644 -85.7139 115° Southeast 455 524 45,000  Level Jacksonville Center
04:41PM 27.8136 -85.5997 117° Southeast 464 534 45,000  Level Miami Center
04:42PM 27.7667 -85.4789 114° Southeast 469 540 45,000  Level Miami Center
04:43PM 27.7103 -85.3389 114° Southeast 470 541 45,000  Level Miami Center
04:44PM 27.6578 -85.2039 114° Southeast 476 548 45,000  Level Miami Center
04:45PM 27.5950 -85.0636 117° Southeast 485 558 45,000  Level Miami Center
04:46PM 27.5506 -84.9294 110° East 477 549 45,000 -60 Level Miami Center
04:47PM 27.4975 -84.7950 114° Southeast 470 541 44,900 -60 Descending Miami Center
04:48PM 27.4342 -84.6597 118° Southeast 470 541 44,900  Level Miami Center
04:49PM 27.3828 -84.5278 114° Southeast 470 541 45,000  Climbing Miami Center
04:50PM 27.3333 -84.3961 113° Southeast 470 541 45,000  Level Miami Center
04:51PM 27.2781 -84.2594 114° Southeast 470 541 45,000  Level Miami Center
04:52PM 27.2222 -84.1228 115° Southeast 470 541 45,000  Level Miami Center
04:53PM 27.1664 -83.9889 115° Southeast 470 541 45,000  Level Miami Center
04:54PM 27.1083 -83.8525 116° Southeast 470 541 45,000  Level Miami Center
04:55PM 27.0586 -83.7167 112° Southeast 470 541 45,000  Level Miami Center
04:56PM 26.9983 -83.5803 116° Southeast 475 547 45,000  Level Miami Center
04:57PM 26.9461 -83.4469 114° Southeast 475 547 45,000  Level Miami Center
04:58PM 26.8914 -83.3183 115° Southeast 465 535 45,000  Level Miami Center
04:59PM 26.8364 -83.1897 116° Southeast 458 527 45,000  Level Miami Center
05:00PM 26.7856 -83.0614 114° Southeast 453 521 45,000  Level Miami Center
05:01PM 26.7267 -82.9233 116° Southeast 465 535 45,000 -480 Level Miami Center
05:02PM 26.6642 -82.7692 114° Southeast 480 552 44,100 -1,800 Descending Miami Center
05:03PM 26.6053 -82.6294 115° Southeast 491 565 41,400 -2,700 Descending Miami Center
05:04PM 26.5419 -82.4869 116° Southeast 501 577 38,700 -2,700 Descending Miami Center
05:05PM 26.4617 -82.3464 123° Southeast 514 592 36,100 -2,460 Descending Miami Center
05:06PM 26.3708 -82.2100 127° Southeast 538 619 33,800 -2,520 Descending Miami Center
05:07PM 26.2794 -82.0764 127° Southeast 549 632 31,100 -2,460 Descending Miami Center
05:08PM 26.2128 -81.9600 123° Southeast 549 632 28,900 -2,400 Descending Miami Center
05:09PM 26.1322 -81.8108 121° Southeast 536 617 26,400 -2,580 Descending Miami Center
05:10PM 26.0700 -81.6719 116° Southeast 516 594 23,800 -2,700 Descending Miami Center
05:11PM 26.0369 -81.5364 105° East 478 550 21,100 -2,700 Descending Miami Center
05:12PM 26.0033 -81.4058 106° East 460 529 18,400 -2,700 Descending Miami Center
05:13PM 25.9678 -81.2772 107° East 440 506 15,800 -2,520 Descending Miami Center
05:14PM 25.9381 -81.1492 104° East 435 501 13,400 -2,580 Descending Miami Center
05:14PM 25.9114 -81.0583 108° East 373 429 11,600 -2,160 Descending Miami Center
05:15PM 25.8889 -80.9744 107° East 278 320 10,000 -1,080 Descending Miami Center
05:16PM 25.8739 -80.9044 103° East 233 268 9,500 -840 Descending Miami Center
05:17PM 25.8803 -80.8308 84° East 239 275 8,400 -1,200 Descending Miami Center
05:18PM 25.8822 -80.7547 88° East 236 272 7,100 -1,260 Descending Miami Center
05:19PM 25.8547 -80.6892 115° Southeast 232 267 5,900 -1,500 Descending Miami Center
05:20PM 25.8272 -80.6261 116° Southeast 223 257 4,100 -1,380 Descending Miami Center
05:21PM 25.8039 -80.5539 110° East 210 242 3,000 -540 Descending Miami Center
05:22PM 25.7969 -80.5028 99° East 210 242 3,100 -300 Climbing Miami Center
05:23PM 25.7944 -80.4336 92° East 214 246 2,500 -780 Descending Miami Center
05:24PM 25.7978 -80.3783 86° East 153 176 1,600 -960 Descending Miami Center
05:25PM 25.7989 -80.3297 89° East 140 161 600 -1,020 Descending Miami Center
05:27PM 25.7954 -80.2901 20° North  Level Estimated
05:34PM 25.7954 -80.2901 20° North  Level Estimated